»·PEaware :: N820JK KBFL-KMHV

N820JK :: KBFL-KMHV

FLIGHT INFORMATION

Flight Status: Arrived
Operator: Privately registered:
United States
More flights under this callsign
Pilot: Josh V. (16801)
Aircraft: CESSNA 172 SKYHAWK
(C172)
More flights by this aircraft type
Origin: KBFL Meadows
United States
Destination: KMHV Mojave
United States
More flights between these airports :: More routes between these airports
Route: KBFL KMHV
File this flight plan on PilotEdge
Remarks: CAT6
Altitude:
(Current/Filed)
7,500ft
Speed:
(Current/Filed)
80kts
Departed: 03-Oct-17 10:11 AM
Arrived: 03-Oct-17 10:55 AM
Distance/Time
Traveled:
50nm/0:44
Distance/Time
To Go:
Arrived

Flight Plot

Page will automatically refresh every two minutes.


Map Options




Map Legend


Flown Route
Filed Route
Departure Airport
Arrival Airport
Navaid (VOR, NDB)
Fix

Horizontal Profiles

Position Reports

Time Latitude Longitude Heading Altitude Ground
Speed
03-Oct-17 10:03 35.433761 -119.050668 45 510ft 0kts
03-Oct-17 10:04 35.433761 -119.050668 45 510ft 0kts
03-Oct-17 10:05 35.433761 -119.050668 45 510ft 0kts
03-Oct-17 10:06 35.433761 -119.050668 45 510ft 0kts
03-Oct-17 10:07 35.433761 -119.050667 45 510ft 0kts
03-Oct-17 10:08 35.433762 -119.050667 45 510ft 0kts
03-Oct-17 10:09 35.433762 -119.050666 45 510ft 0kts
03-Oct-17 10:10 35.433332 -119.050685 215 510ft 8kts
03-Oct-17 10:11 35.430703 -119.049987 137 510ft 12kts
03-Oct-17 10:12 35.428657 -119.047561 134 510ft 19kts
03-Oct-17 10:13 35.425994 -119.045688 226 510ft 0kts
03-Oct-17 10:14 35.425991 -119.045691 226 510ft 0kts
03-Oct-17 10:15 35.434667 -119.057335 313 801ft 77kts
03-Oct-17 10:16 35.451021 -119.072808 15 1596ft 76kts
03-Oct-17 10:17 35.450083 -119.051507 118 2390ft 63kts
03-Oct-17 10:18 35.441042 -119.032674 131 3086ft 64kts
03-Oct-17 10:19 35.430392 -119.015284 142 3722ft 67kts
03-Oct-17 10:20 35.418717 -118.998395 134 4368ft 67kts
03-Oct-17 10:21 35.407852 -118.978524 138 4921ft 71kts
03-Oct-17 10:22 35.397684 -118.956718 136 5472ft 73kts
03-Oct-17 10:23 35.383617 -118.940590 157 5999ft 65kts
03-Oct-17 10:24 35.368409 -118.931492 166 6466ft 63kts
03-Oct-17 10:25 35.362341 -118.910598 120 7021ft 67kts
03-Oct-17 10:26 35.356496 -118.891559 143 7461ft 54kts
03-Oct-17 10:27 35.346028 -118.870250 135 7532ft 94kts
03-Oct-17 10:28 35.331890 -118.841044 134 7500ft 101kts
03-Oct-17 10:29 35.315318 -118.814743 149 7575ft 95kts
03-Oct-17 10:30 35.295981 -118.791591 149 7571ft 98kts
03-Oct-17 10:31 35.276441 -118.768389 149 7562ft 98kts
03-Oct-17 10:32 35.256292 -118.744817 149 7578ft 91kts
03-Oct-17 10:33 35.244933 -118.720079 128 8079ft 79kts
03-Oct-17 10:34 35.239777 -118.696174 128 8492ft 71kts
03-Oct-17 10:35 35.233178 -118.667462 113 8521ft 110kts
03-Oct-17 10:36 35.228515 -118.635409 123 8494ft 112kts
03-Oct-17 10:37 35.215201 -118.602638 136 8491ft 106kts
03-Oct-17 10:38 35.197660 -118.566672 137 8515ft 105kts
03-Oct-17 10:39 35.182958 -118.536739 137 8519ft 102kts
03-Oct-17 10:40 35.168116 -118.506569 137 8517ft 103kts
03-Oct-17 10:41 35.155712 -118.481375 137 8512ft 105kts
03-Oct-17 10:42 35.140650 -118.450758 137 8510ft 105kts
03-Oct-17 10:43 35.128645 -118.416769 124 8513ft 111kts
03-Oct-17 10:44 35.118484 -118.380931 124 8507ft 111kts
03-Oct-17 10:45 35.115307 -118.341656 91 8498ft 127kts
03-Oct-17 10:46 35.122050 -118.291592 91 8492ft 127kts
03-Oct-17 10:47 35.126922 -118.255911 91 8451ft 128kts
03-Oct-17 10:48 35.129921 -118.212407 103 7770ft 127kts
03-Oct-17 10:49 35.124066 -118.171390 124 7080ft 120kts
03-Oct-17 10:50 35.111201 -118.133820 124 6492ft 115kts
03-Oct-17 10:51 35.102005 -118.099018 86 6350ft 117kts
03-Oct-17 10:52 35.112476 -118.065784 148 5812ft 92kts
03-Oct-17 10:53 35.107786 -118.087161 238 4904ft 67kts
03-Oct-17 10:54 35.094551 -118.091102 162 4405ft 86kts
03-Oct-17 10:55 35.074250 -118.079719 182 3919ft 74kts
03-Oct-17 10:56 35.061111 -118.094810 248 3607ft 74kts
03-Oct-17 10:57 35.059355 -118.120517 260 3214ft 75kts
03-Oct-17 10:58 35.059214 -118.141271 256 2828ft 53kts
03-Oct-17 10:59 35.059155 -118.150238 253 2794ft 9kts
03-Oct-17 11:00 35.057901 -118.149147 133 2794ft 0kts
03-Oct-17 11:01 35.056422 -118.152655 271 2794ft 0kts

Navigation Log

Ident Type
1. KBFL Airport
2. KMHV Airport